sensor_id;sensor_type;location;lat;lon;timestamp;temperature;humidity
11239;DHT22;5677;48.488;13.436;2023-02-01T00:02:08;11.90;45.90
11239;DHT22;5677;48.488;13.436;2023-02-01T00:04:35;11.90;45.90
11239;DHT22;5677;48.488;13.436;2023-02-01T00:07:02;11.90;45.90
11239;DHT22;5677;48.488;13.436;2023-02-01T00:09:29;11.90;45.90
11239;DHT22;5677;48.488;13.436;2023-02-01T00:11:55;11.90;45.90
11239;DHT22;5677;48.488;13.436;2023-02-01T00:14:24;11.80;46.50
11239;DHT22;5677;48.488;13.436;2023-02-01T00:16:51;11.90;46.00
11239;DHT22;5677;48.488;13.436;2023-02-01T00:19:19;11.80;45.80
11239;DHT22;5677;48.488;13.436;2023-02-01T00:21:46;11.80;45.90
11239;DHT22;5677;48.488;13.436;2023-02-01T00:24:13;11.80;45.90
11239;DHT22;5677;48.488;13.436;2023-02-01T00:26:42;11.80;45.90
11239;DHT22;5677;48.488;13.436;2023-02-01T00:29:11;11.80;45.90
11239;DHT22;5677;48.488;13.436;2023-02-01T00:31:38;11.80;45.90
11239;DHT22;5677;48.488;13.436;2023-02-01T00:34:05;11.80;46.00
11239;DHT22;5677;48.488;13.436;2023-02-01T00:36:33;11.80;46.30
11239;DHT22;5677;48.488;13.436;2023-02-01T00:39:00;11.90;46.10
11239;DHT22;5677;48.488;13.436;2023-02-01T00:41:27;11.80;46.00
11239;DHT22;5677;48.488;13.436;2023-02-01T00:43:54;11.80;46.00
11239;DHT22;5677;48.488;13.436;2023-02-01T00:46:21;11.80;46.00
11239;DHT22;5677;48.488;13.436;2023-02-01T00:48:48;11.80;46.00
11239;DHT22;5677;48.488;13.436;2023-02-01T00:51:16;11.80;46.10
11239;DHT22;5677;48.488;13.436;2023-02-01T00:53:44;11.80;46.00
11239;DHT22;5677;48.488;13.436;2023-02-01T00:56:12;11.80;46.10
11239;DHT22;5677;48.488;13.436;2023-02-01T00:58:39;11.80;46.10
11239;DHT22;5677;48.488;13.436;2023-02-01T01:01:08;11.80;46.10
11239;DHT22;5677;48.488;13.436;2023-02-01T01:03:36;11.80;46.10
11239;DHT22;5677;48.488;13.436;2023-02-01T01:06:06;11.80;46.10
11239;DHT22;5677;48.488;13.436;2023-02-01T01:08:33;11.80;46.10
11239;DHT22;5677;48.488;13.436;2023-02-01T01:11:05;11.80;46.10
11239;DHT22;5677;48.488;13.436;2023-02-01T01:13:32;11.80;46.10
11239;DHT22;5677;48.488;13.436;2023-02-01T01:16:00;11.80;46.20
11239;DHT22;5677;48.488;13.436;2023-02-01T01:18:28;11.80;46.10
11239;DHT22;5677;48.488;13.436;2023-02-01T01:20:55;11.80;46.20
11239;DHT22;5677;48.488;13.436;2023-02-01T01:23:22;11.80;46.20
11239;DHT22;5677;48.488;13.436;2023-02-01T01:25:49;11.80;46.20
11239;DHT22;5677;48.488;13.436;2023-02-01T01:28:17;11.80;46.20
11239;DHT22;5677;48.488;13.436;2023-02-01T01:30:44;11.80;46.20
11239;DHT22;5677;48.488;13.436;2023-02-01T01:33:11;11.80;46.30
11239;DHT22;5677;48.488;13.436;2023-02-01T01:35:38;11.80;46.30
11239;DHT22;5677;48.488;13.436;2023-02-01T01:38:04;11.80;46.20
11239;DHT22;5677;48.488;13.436;2023-02-01T01:40:31;11.80;46.20
11239;DHT22;5677;48.488;13.436;2023-02-01T01:42:58;11.80;46.30
11239;DHT22;5677;48.488;13.436;2023-02-01T01:45:27;11.80;46.30
11239;DHT22;5677;48.488;13.436;2023-02-01T01:47:56;11.80;46.30
11239;DHT22;5677;48.488;13.436;2023-02-01T01:50:28;11.80;46.30
11239;DHT22;5677;48.488;13.436;2023-02-01T01:52:58;11.80;46.30
11239;DHT22;5677;48.488;13.436;2023-02-01T01:55:31;11.80;46.30
11239;DHT22;5677;48.488;13.436;2023-02-01T01:58:01;11.80;46.30
11239;DHT22;5677;48.488;13.436;2023-02-01T02:00:30;11.80;46.30
11239;DHT22;5677;48.488;13.436;2023-02-01T02:03:00;11.80;46.30
11239;DHT22;5677;48.488;13.436;2023-02-01T02:05:29;11.80;46.30
11239;DHT22;5677;48.488;13.436;2023-02-01T02:07:58;11.80;46.30
11239;DHT22;5677;48.488;13.436;2023-02-01T02:10:27;11.80;46.30
11239;DHT22;5677;48.488;13.436;2023-02-01T02:13:18;11.80;46.30
11239;DHT22;5677;48.488;13.436;2023-02-01T02:15:56;11.80;46.40
11239;DHT22;5677;48.488;13.436;2023-02-01T02:18:29;11.80;46.40
11239;DHT22;5677;48.488;13.436;2023-02-01T02:21:10;11.80;46.40
11239;DHT22;5677;48.488;13.436;2023-02-01T02:23:53;11.80;46.40
11239;DHT22;5677;48.488;13.436;2023-02-01T02:29:51;11.80;46.40
11239;DHT22;5677;48.488;13.436;2023-02-01T02:35:26;11.80;46.50
11239;DHT22;5677;48.488;13.436;2023-02-01T02:38:05;11.80;46.50
11239;DHT22;5677;48.488;13.436;2023-02-01T02:40:42;11.80;46.50
11239;DHT22;5677;48.488;13.436;2023-02-01T02:43:18;11.80;46.50
11239;DHT22;5677;48.488;13.436;2023-02-01T02:46:06;11.80;46.50
11239;DHT22;5677;48.488;13.436;2023-02-01T02:49:02;11.80;46.50
11239;DHT22;5677;48.488;13.436;2023-02-01T02:51:35;11.80;46.50
11239;DHT22;5677;48.488;13.436;2023-02-01T02:54:24;11.80;46.50
11239;DHT22;5677;48.488;13.436;2023-02-01T02:57:13;11.80;46.50
11239;DHT22;5677;48.488;13.436;2023-02-01T03:00:01;11.80;46.50
11239;DHT22;5677;48.488;13.436;2023-02-01T03:02:46;11.80;47.30
11239;DHT22;5677;48.488;13.436;2023-02-01T03:05:32;11.80;46.60
11239;DHT22;5677;48.488;13.436;2023-02-01T03:08:05;11.80;46.60
11239;DHT22;5677;48.488;13.436;2023-02-01T03:10:45;11.80;46.60
11239;DHT22;5677;48.488;13.436;2023-02-01T03:13:15;11.80;46.70
11239;DHT22;5677;48.488;13.436;2023-02-01T03:15:49;11.80;46.60
11239;DHT22;5677;48.488;13.436;2023-02-01T03:18:22;11.80;46.70
11239;DHT22;5677;48.488;13.436;2023-02-01T03:20:53;11.80;46.70
11239;DHT22;5677;48.488;13.436;2023-02-01T03:23:26;11.80;46.70
11239;DHT22;5677;48.488;13.436;2023-02-01T03:25:56;11.80;46.70
11239;DHT22;5677;48.488;13.436;2023-02-01T03:28:28;11.80;46.70
11239;DHT22;5677;48.488;13.436;2023-02-01T03:30:56;11.80;46.70
11239;DHT22;5677;48.488;13.436;2023-02-01T03:33:25;11.80;46.70
11239;DHT22;5677;48.488;13.436;2023-02-01T03:35:59;11.80;46.70
11239;DHT22;5677;48.488;13.436;2023-02-01T03:38:31;11.80;46.70
11239;DHT22;5677;48.488;13.436;2023-02-01T03:41:03;11.80;46.70
11239;DHT22;5677;48.488;13.436;2023-02-01T03:43:40;11.80;46.80
11239;DHT22;5677;48.488;13.436;2023-02-01T03:46:12;11.80;46.70
11239;DHT22;5677;48.488;13.436;2023-02-01T03:48:41;11.80;46.70
11239;DHT22;5677;48.488;13.436;2023-02-01T03:51:09;11.80;46.80
11239;DHT22;5677;48.488;13.436;2023-02-01T03:53:40;11.80;46.80
11239;DHT22;5677;48.488;13.436;2023-02-01T03:56:08;11.80;46.80
11239;DHT22;5677;48.488;13.436;2023-02-01T03:58:37;11.80;46.80
11239;DHT22;5677;48.488;13.436;2023-02-01T04:01:04;11.80;46.80
11239;DHT22;5677;48.488;13.436;2023-02-01T04:03:30;11.80;46.80
11239;DHT22;5677;48.488;13.436;2023-02-01T04:05:57;11.80;46.80
11239;DHT22;5677;48.488;13.436;2023-02-01T04:08:24;11.80;46.80
11239;DHT22;5677;48.488;13.436;2023-02-01T04:10:52;11.80;46.80
11239;DHT22;5677;48.488;13.436;2023-02-01T04:13:19;11.80;46.80
11239;DHT22;5677;48.488;13.436;2023-02-01T04:15:47;11.80;46.80
11239;DHT22;5677;48.488;13.436;2023-02-01T04:18:15;11.80;46.80
11239;DHT22;5677;48.488;13.436;2023-02-01T04:20:42;11.80;46.90
11239;DHT22;5677;48.488;13.436;2023-02-01T04:23:09;11.80;46.90
11239;DHT22;5677;48.488;13.436;2023-02-01T04:25:36;11.80;46.90
11239;DHT22;5677;48.488;13.436;2023-02-01T04:28:04;11.80;46.90
11239;DHT22;5677;48.488;13.436;2023-02-01T04:30:32;11.70;46.90
11239;DHT22;5677;48.488;13.436;2023-02-01T04:32:59;11.80;46.90
11239;DHT22;5677;48.488;13.436;2023-02-01T04:35:26;11.80;46.90
11239;DHT22;5677;48.488;13.436;2023-02-01T04:37:52;11.70;46.90
11239;DHT22;5677;48.488;13.436;2023-02-01T04:40:19;11.80;46.90
11239;DHT22;5677;48.488;13.436;2023-02-01T04:42:46;11.80;46.90
11239;DHT22;5677;48.488;13.436;2023-02-01T04:45:14;11.80;46.90
11239;DHT22;5677;48.488;13.436;2023-02-01T04:47:41;11.80;46.90
11239;DHT22;5677;48.488;13.436;2023-02-01T04:50:08;11.80;46.90
11239;DHT22;5677;48.488;13.436;2023-02-01T04:52:36;11.70;46.90
11239;DHT22;5677;48.488;13.436;2023-02-01T04:55:03;11.70;46.90
11239;DHT22;5677;48.488;13.436;2023-02-01T04:57:30;11.70;46.90
11239;DHT22;5677;48.488;13.436;2023-02-01T04:59:57;11.80;46.90
11239;DHT22;5677;48.488;13.436;2023-02-01T05:02:25;11.80;46.90
11239;DHT22;5677;48.488;13.436;2023-02-01T05:04:52;11.80;46.90
11239;DHT22;5677;48.488;13.436;2023-02-01T05:07:21;11.70;46.90
11239;DHT22;5677;48.488;13.436;2023-02-01T05:09:47;11.80;46.90
11239;DHT22;5677;48.488;13.436;2023-02-01T05:12:14;11.80;46.90
11239;DHT22;5677;48.488;13.436;2023-02-01T05:15:13;11.70;47.00
11239;DHT22;5677;48.488;13.436;2023-02-01T05:17:41;11.70;47.00
11239;DHT22;5677;48.488;13.436;2023-02-01T05:20:09;11.70;47.00
11239;DHT22;5677;48.488;13.436;2023-02-01T05:22:36;11.80;47.00
11239;DHT22;5677;48.488;13.436;2023-02-01T05:25:03;11.70;47.00
11239;DHT22;5677;48.488;13.436;2023-02-01T05:27:30;11.70;47.00
11239;DHT22;5677;48.488;13.436;2023-02-01T05:29:57;11.80;47.00
11239;DHT22;5677;48.488;13.436;2023-02-01T05:32:24;11.70;47.00
11239;DHT22;5677;48.488;13.436;2023-02-01T05:34:52;11.80;47.00
11239;DHT22;5677;48.488;13.436;2023-02-01T05:37:18;11.70;47.00
11239;DHT22;5677;48.488;13.436;2023-02-01T05:39:47;11.70;47.10
11239;DHT22;5677;48.488;13.436;2023-02-01T05:42:14;11.70;47.10
11239;DHT22;5677;48.488;13.436;2023-02-01T05:44:41;11.70;47.00
11239;DHT22;5677;48.488;13.436;2023-02-01T05:47:08;11.70;47.10
11239;DHT22;5677;48.488;13.436;2023-02-01T05:49:35;11.70;47.10
11239;DHT22;5677;48.488;13.436;2023-02-01T05:52:03;11.70;47.10
11239;DHT22;5677;48.488;13.436;2023-02-01T05:54:30;11.70;47.10
11239;DHT22;5677;48.488;13.436;2023-02-01T05:56:57;11.70;47.10
11239;DHT22;5677;48.488;13.436;2023-02-01T05:59:24;11.70;47.20
11239;DHT22;5677;48.488;13.436;2023-02-01T06:01:50;11.70;47.10
11239;DHT22;5677;48.488;13.436;2023-02-01T06:04:17;11.70;47.10
11239;DHT22;5677;48.488;13.436;2023-02-01T06:06:44;11.80;47.20
11239;DHT22;5677;48.488;13.436;2023-02-01T06:09:12;11.80;47.10
11239;DHT22;5677;48.488;13.436;2023-02-01T06:11:39;11.80;47.20
11239;DHT22;5677;48.488;13.436;2023-02-01T06:14:06;11.70;47.20
11239;DHT22;5677;48.488;13.436;2023-02-01T06:16:33;11.80;47.20
11239;DHT22;5677;48.488;13.436;2023-02-01T06:19:00;11.80;47.20
11239;DHT22;5677;48.488;13.436;2023-02-01T06:21:27;11.80;47.20
11239;DHT22;5677;48.488;13.436;2023-02-01T06:23:54;11.70;47.20
11239;DHT22;5677;48.488;13.436;2023-02-01T06:26:24;11.80;47.20
11239;DHT22;5677;48.488;13.436;2023-02-01T06:28:51;11.80;47.20
11239;DHT22;5677;48.488;13.436;2023-02-01T06:31:17;11.80;47.20
11239;DHT22;5677;48.488;13.436;2023-02-01T06:33:44;11.80;47.20
11239;DHT22;5677;48.488;13.436;2023-02-01T06:36:12;11.80;47.20
11239;DHT22;5677;48.488;13.436;2023-02-01T06:38:40;11.70;47.20
11239;DHT22;5677;48.488;13.436;2023-02-01T06:41:07;11.80;47.20
11239;DHT22;5677;48.488;13.436;2023-02-01T06:43:36;11.80;47.20
11239;DHT22;5677;48.488;13.436;2023-02-01T06:46:05;11.80;47.50
11239;DHT22;5677;48.488;13.436;2023-02-01T06:48:32;11.80;47.50
11239;DHT22;5677;48.488;13.436;2023-02-01T06:50:59;11.80;47.50
11239;DHT22;5677;48.488;13.436;2023-02-01T06:53:26;11.80;47.70
11239;DHT22;5677;48.488;13.436;2023-02-01T06:55:53;11.80;48.00
11239;DHT22;5677;48.488;13.436;2023-02-01T06:58:20;11.80;48.10
11239;DHT22;5677;48.488;13.436;2023-02-01T07:00:48;11.80;47.70
11239;DHT22;5677;48.488;13.436;2023-02-01T07:03:16;11.80;47.70
11239;DHT22;5677;48.488;13.436;2023-02-01T07:05:42;11.80;46.40
11239;DHT22;5677;48.488;13.436;2023-02-01T07:08:09;11.80;43.50
11239;DHT22;5677;48.488;13.436;2023-02-01T07:10:37;11.70;44.60
11239;DHT22;5677;48.488;13.436;2023-02-01T07:13:04;11.70;46.10
11239;DHT22;5677;48.488;13.436;2023-02-01T07:15:31;11.70;46.00
11239;DHT22;5677;48.488;13.436;2023-02-01T07:17:59;11.70;46.00
11239;DHT22;5677;48.488;13.436;2023-02-01T07:20:26;11.60;45.90
11239;DHT22;5677;48.488;13.436;2023-02-01T07:22:55;11.70;45.90
11239;DHT22;5677;48.488;13.436;2023-02-01T07:25:22;11.70;46.00
11239;DHT22;5677;48.488;13.436;2023-02-01T07:27:49;11.70;46.00
11239;DHT22;5677;48.488;13.436;2023-02-01T07:30:16;11.70;45.90
11239;DHT22;5677;48.488;13.436;2023-02-01T07:32:43;11.70;46.00
11239;DHT22;5677;48.488;13.436;2023-02-01T07:35:11;11.70;46.50
11239;DHT22;5677;48.488;13.436;2023-02-01T07:37:39;11.80;47.10
11239;DHT22;5677;48.488;13.436;2023-02-01T07:40:07;11.80;47.40
11239;DHT22;5677;48.488;13.436;2023-02-01T07:42:34;11.80;47.50
11239;DHT22;5677;48.488;13.436;2023-02-01T07:45:02;11.80;47.50
11239;DHT22;5677;48.488;13.436;2023-02-01T07:47:29;11.80;47.60
11239;DHT22;5677;48.488;13.436;2023-02-01T07:49:56;11.80;47.60
11239;DHT22;5677;48.488;13.436;2023-02-01T07:52:24;11.90;47.60
11239;DHT22;5677;48.488;13.436;2023-02-01T07:54:53;11.90;47.60
11239;DHT22;5677;48.488;13.436;2023-02-01T07:57:20;11.90;47.60
11239;DHT22;5677;48.488;13.436;2023-02-01T07:59:47;11.90;47.60
11239;DHT22;5677;48.488;13.436;2023-02-01T08:02:31;11.90;47.50
11239;DHT22;5677;48.488;13.436;2023-02-01T08:04:58;11.90;47.40
11239;DHT22;5677;48.488;13.436;2023-02-01T08:07:26;11.90;47.50
11239;DHT22;5677;48.488;13.436;2023-02-01T08:09:53;11.90;47.00
11239;DHT22;5677;48.488;13.436;2023-02-01T08:12:19;11.90;47.50
11239;DHT22;5677;48.488;13.436;2023-02-01T08:14:46;11.90;47.30
11239;DHT22;5677;48.488;13.436;2023-02-01T08:17:13;11.90;47.30
11239;DHT22;5677;48.488;13.436;2023-02-01T08:19:39;11.90;47.20
11239;DHT22;5677;48.488;13.436;2023-02-01T08:22:06;11.90;47.20
11239;DHT22;5677;48.488;13.436;2023-02-01T08:24:34;11.90;47.90
11239;DHT22;5677;48.488;13.436;2023-02-01T08:27:03;12.00;47.10
11239;DHT22;5677;48.488;13.436;2023-02-01T08:29:30;11.90;47.10
11239;DHT22;5677;48.488;13.436;2023-02-01T08:31:56;12.00;47.10
11239;DHT22;5677;48.488;13.436;2023-02-01T08:34:23;12.00;47.30
11239;DHT22;5677;48.488;13.436;2023-02-01T08:36:52;12.00;47.50
11239;DHT22;5677;48.488;13.436;2023-02-01T08:39:23;12.00;47.60
11239;DHT22;5677;48.488;13.436;2023-02-01T08:41:52;12.00;47.70
11239;DHT22;5677;48.488;13.436;2023-02-01T08:44:33;12.00;47.70
11239;DHT22;5677;48.488;13.436;2023-02-01T08:46:59;12.00;47.70
11239;DHT22;5677;48.488;13.436;2023-02-01T08:49:26;12.00;47.70
11239;DHT22;5677;48.488;13.436;2023-02-01T08:51:53;12.00;47.70
11239;DHT22;5677;48.488;13.436;2023-02-01T08:54:20;12.00;47.60
11239;DHT22;5677;48.488;13.436;2023-02-01T08:56:47;12.00;47.30
11239;DHT22;5677;48.488;13.436;2023-02-01T08:59:15;12.00;47.20
11239;DHT22;5677;48.488;13.436;2023-02-01T09:01:42;12.00;46.70
11239;DHT22;5677;48.488;13.436;2023-02-01T09:04:09;12.00;46.90
11239;DHT22;5677;48.488;13.436;2023-02-01T09:06:35;12.00;47.00
11239;DHT22;5677;48.488;13.436;2023-02-01T09:09:02;12.00;47.00
11239;DHT22;5677;48.488;13.436;2023-02-01T09:11:29;12.00;46.80
11239;DHT22;5677;48.488;13.436;2023-02-01T09:13:56;12.00;46.70
11239;DHT22;5677;48.488;13.436;2023-02-01T09:16:24;12.00;46.60
11239;DHT22;5677;48.488;13.436;2023-02-01T09:18:51;12.00;46.60
11239;DHT22;5677;48.488;13.436;2023-02-01T09:21:18;12.00;46.60
11239;DHT22;5677;48.488;13.436;2023-02-01T09:23:44;12.00;46.60
11239;DHT22;5677;48.488;13.436;2023-02-01T09:26:14;12.00;47.20
11239;DHT22;5677;48.488;13.436;2023-02-01T09:28:40;12.00;46.60
11239;DHT22;5677;48.488;13.436;2023-02-01T09:31:07;12.00;47.00
11239;DHT22;5677;48.488;13.436;2023-02-01T09:33:35;12.00;46.80
11239;DHT22;5677;48.488;13.436;2023-02-01T09:36:03;12.00;46.90
11239;DHT22;5677;48.488;13.436;2023-02-01T09:38:31;12.10;47.40
11239;DHT22;5677;48.488;13.436;2023-02-01T09:40:58;12.10;47.10
11239;DHT22;5677;48.488;13.436;2023-02-01T09:43:35;12.00;47.10
11239;DHT22;5677;48.488;13.436;2023-02-01T09:46:22;12.00;47.00
11239;DHT22;5677;48.488;13.436;2023-02-01T09:48:54;12.00;46.70
11239;DHT22;5677;48.488;13.436;2023-02-01T09:51:24;12.00;46.80
11239;DHT22;5677;48.488;13.436;2023-02-01T09:53:58;12.00;47.10
11239;DHT22;5677;48.488;13.436;2023-02-01T09:56:32;12.00;47.60
11239;DHT22;5677;48.488;13.436;2023-02-01T09:59:08;12.00;47.70
11239;DHT22;5677;48.488;13.436;2023-02-01T10:01:36;12.00;48.10
11239;DHT22;5677;48.488;13.436;2023-02-01T10:04:06;12.00;47.70
11239;DHT22;5677;48.488;13.436;2023-02-01T10:06:41;12.00;47.50
11239;DHT22;5677;48.488;13.436;2023-02-01T10:09:20;12.00;47.80
11239;DHT22;5677;48.488;13.436;2023-02-01T10:12:04;12.00;48.10
11239;DHT22;5677;48.488;13.436;2023-02-01T10:14:58;12.10;49.20
11239;DHT22;5677;48.488;13.436;2023-02-01T10:17:50;12.10;49.00
11239;DHT22;5677;48.488;13.436;2023-02-01T10:20:24;12.10;48.60
11239;DHT22;5677;48.488;13.436;2023-02-01T10:23:00;12.10;48.30
11239;DHT22;5677;48.488;13.436;2023-02-01T10:25:32;12.10;48.30
11239;DHT22;5677;48.488;13.436;2023-02-01T10:28:03;12.00;48.00
11239;DHT22;5677;48.488;13.436;2023-02-01T10:30:33;12.10;48.10
11239;DHT22;5677;48.488;13.436;2023-02-01T10:33:14;12.00;48.10
11239;DHT22;5677;48.488;13.436;2023-02-01T10:35:44;12.10;48.90
11239;DHT22;5677;48.488;13.436;2023-02-01T10:38:18;12.00;48.90
11239;DHT22;5677;48.488;13.436;2023-02-01T10:40:48;12.10;49.10
11239;DHT22;5677;48.488;13.436;2023-02-01T10:43:15;12.10;49.20
11239;DHT22;5677;48.488;13.436;2023-02-01T10:45:42;12.10;49.30
11239;DHT22;5677;48.488;13.436;2023-02-01T10:48:09;12.10;49.50
11239;DHT22;5677;48.488;13.436;2023-02-01T10:50:40;12.10;49.60
11239;DHT22;5677;48.488;13.436;2023-02-01T10:53:14;12.10;49.70
11239;DHT22;5677;48.488;13.436;2023-02-01T10:55:48;12.10;49.90
11239;DHT22;5677;48.488;13.436;2023-02-01T10:58:17;12.10;50.00
11239;DHT22;5677;48.488;13.436;2023-02-01T11:00:48;12.10;50.10
11239;DHT22;5677;48.488;13.436;2023-02-01T11:03:37;12.10;50.10
11239;DHT22;5677;48.488;13.436;2023-02-01T11:06:16;12.10;50.10
11239;DHT22;5677;48.488;13.436;2023-02-01T11:08:49;12.10;50.30
11239;DHT22;5677;48.488;13.436;2023-02-01T11:11:16;12.10;50.50
11239;DHT22;5677;48.488;13.436;2023-02-01T11:13:44;12.10;50.50
11239;DHT22;5677;48.488;13.436;2023-02-01T11:16:13;12.10;51.40
11239;DHT22;5677;48.488;13.436;2023-02-01T11:18:41;12.10;50.70
11239;DHT22;5677;48.488;13.436;2023-02-01T11:21:09;12.10;51.10
11239;DHT22;5677;48.488;13.436;2023-02-01T11:23:42;12.10;50.20
11239;DHT22;5677;48.488;13.436;2023-02-01T11:26:13;12.10;50.10
11239;DHT22;5677;48.488;13.436;2023-02-01T11:28:45;12.10;50.30
11239;DHT22;5677;48.488;13.436;2023-02-01T11:31:14;12.10;50.10
11239;DHT22;5677;48.488;13.436;2023-02-01T11:33:47;12.10;50.40
11239;DHT22;5677;48.488;13.436;2023-02-01T11:36:17;12.10;50.10
11239;DHT22;5677;48.488;13.436;2023-02-01T11:38:50;12.10;50.10
11239;DHT22;5677;48.488;13.436;2023-02-01T11:41:23;12.10;50.00
11239;DHT22;5677;48.488;13.436;2023-02-01T11:43:55;12.10;49.80
11239;DHT22;5677;48.488;13.436;2023-02-01T11:46:29;12.10;49.60
11239;DHT22;5677;48.488;13.436;2023-02-01T11:48:57;12.10;49.40
11239;DHT22;5677;48.488;13.436;2023-02-01T11:51:48;12.10;49.30
11239;DHT22;5677;48.488;13.436;2023-02-01T11:54:27;12.10;49.20
11239;DHT22;5677;48.488;13.436;2023-02-01T11:57:10;12.10;49.20
11239;DHT22;5677;48.488;13.436;2023-02-01T12:00:00;12.20;49.00
11239;DHT22;5677;48.488;13.436;2023-02-01T12:02:57;12.20;48.90
11239;DHT22;5677;48.488;13.436;2023-02-01T12:05:47;12.20;48.90
11239;DHT22;5677;48.488;13.436;2023-02-01T12:08:36;12.20;48.80
11239;DHT22;5677;48.488;13.436;2023-02-01T12:11:25;12.20;48.70
11239;DHT22;5677;48.488;13.436;2023-02-01T12:14:06;12.20;48.50
11239;DHT22;5677;48.488;13.436;2023-02-01T12:16:40;12.20;48.40
11239;DHT22;5677;48.488;13.436;2023-02-01T12:19:23;12.30;48.30
11239;DHT22;5677;48.488;13.436;2023-02-01T12:22:03;12.40;48.80
11239;DHT22;5677;48.488;13.436;2023-02-01T12:24:46;12.40;48.00
11239;DHT22;5677;48.488;13.436;2023-02-01T12:30:47;12.40;48.00
11239;DHT22;5677;48.488;13.436;2023-02-01T12:33:21;12.40;47.90
11239;DHT22;5677;48.488;13.436;2023-02-01T12:36:07;12.40;47.70
11239;DHT22;5677;48.488;13.436;2023-02-01T12:38:44;12.40;47.90
11239;DHT22;5677;48.488;13.436;2023-02-01T12:41:33;12.40;48.30
11239;DHT22;5677;48.488;13.436;2023-02-01T12:44:04;12.30;48.20
11239;DHT22;5677;48.488;13.436;2023-02-01T12:46:40;12.30;48.70
11239;DHT22;5677;48.488;13.436;2023-02-01T12:49:14;12.30;48.50
11239;DHT22;5677;48.488;13.436;2023-02-01T12:51:44;12.30;48.80
11239;DHT22;5677;48.488;13.436;2023-02-01T12:54:14;12.30;49.00
11239;DHT22;5677;48.488;13.436;2023-02-01T12:56:47;12.30;48.70
11239;DHT22;5677;48.488;13.436;2023-02-01T12:59:21;12.30;48.60
11239;DHT22;5677;48.488;13.436;2023-02-01T13:01:54;12.30;48.60
11239;DHT22;5677;48.488;13.436;2023-02-01T13:04:28;12.30;48.50
11239;DHT22;5677;48.488;13.436;2023-02-01T13:07:03;12.20;48.80
11239;DHT22;5677;48.488;13.436;2023-02-01T13:09:38;12.20;48.70
11239;DHT22;5677;48.488;13.436;2023-02-01T13:12:11;12.20;48.60
11239;DHT22;5677;48.488;13.436;2023-02-01T13:14:43;12.20;48.50
11239;DHT22;5677;48.488;13.436;2023-02-01T13:17:16;12.20;48.60
11239;DHT22;5677;48.488;13.436;2023-02-01T13:19:49;12.20;48.80
11239;DHT22;5677;48.488;13.436;2023-02-01T13:22:20;12.20;49.70
11239;DHT22;5677;48.488;13.436;2023-02-01T13:24:50;12.20;49.20
11239;DHT22;5677;48.488;13.436;2023-02-01T13:27:18;12.30;49.00
11239;DHT22;5677;48.488;13.436;2023-02-01T13:29:50;12.20;48.80
11239;DHT22;5677;48.488;13.436;2023-02-01T13:35:36;12.20;48.80
11239;DHT22;5677;48.488;13.436;2023-02-01T13:38:41;12.20;48.70
11239;DHT22;5677;48.488;13.436;2023-02-01T13:41:20;12.20;48.70
11239;DHT22;5677;48.488;13.436;2023-02-01T13:43:54;12.20;48.70
11239;DHT22;5677;48.488;13.436;2023-02-01T13:46:22;12.20;48.60
11239;DHT22;5677;48.488;13.436;2023-02-01T13:48:54;12.20;48.60
11239;DHT22;5677;48.488;13.436;2023-02-01T13:51:34;12.20;48.90
11239;DHT22;5677;48.488;13.436;2023-02-01T13:54:01;12.20;50.00
11239;DHT22;5677;48.488;13.436;2023-02-01T13:56:40;12.20;50.60
11239;DHT22;5677;48.488;13.436;2023-02-01T13:59:36;12.30;50.50
11239;DHT22;5677;48.488;13.436;2023-02-01T14:05:04;12.30;49.90
11239;DHT22;5677;48.488;13.436;2023-02-01T14:07:31;12.30;49.70
11239;DHT22;5677;48.488;13.436;2023-02-01T14:09:58;12.30;49.50
11239;DHT22;5677;48.488;13.436;2023-02-01T14:12:46;12.30;50.60
11239;DHT22;5677;48.488;13.436;2023-02-01T14:15:25;12.30;51.20
11239;DHT22;5677;48.488;13.436;2023-02-01T14:17:52;12.30;51.80
11239;DHT22;5677;48.488;13.436;2023-02-01T14:20:45;12.30;52.40
11239;DHT22;5677;48.488;13.436;2023-02-01T14:23:17;12.30;51.40
11239;DHT22;5677;48.488;13.436;2023-02-01T14:25:45;12.40;51.00
11239;DHT22;5677;48.488;13.436;2023-02-01T14:28:24;12.40;50.80
11239;DHT22;5677;48.488;13.436;2023-02-01T14:30:53;12.40;51.20
11239;DHT22;5677;48.488;13.436;2023-02-01T14:33:22;12.40;51.50
11239;DHT22;5677;48.488;13.436;2023-02-01T14:36:07;12.40;51.40
11239;DHT22;5677;48.488;13.436;2023-02-01T14:38:35;12.40;51.50
11239;DHT22;5677;48.488;13.436;2023-02-01T14:41:29;12.40;51.50
11239;DHT22;5677;48.488;13.436;2023-02-01T14:44:25;12.40;51.50
11239;DHT22;5677;48.488;13.436;2023-02-01T14:47:09;12.40;51.40
11239;DHT22;5677;48.488;13.436;2023-02-01T14:49:47;12.40;51.50
11239;DHT22;5677;48.488;13.436;2023-02-01T14:52:19;12.40;51.40
11239;DHT22;5677;48.488;13.436;2023-02-01T14:54:53;12.40;51.40
11239;DHT22;5677;48.488;13.436;2023-02-01T14:57:25;12.40;51.40
11239;DHT22;5677;48.488;13.436;2023-02-01T15:00:04;12.40;51.70
11239;DHT22;5677;48.488;13.436;2023-02-01T15:02:33;12.50;51.70
11239;DHT22;5677;48.488;13.436;2023-02-01T15:05:01;12.40;51.50
11239;DHT22;5677;48.488;13.436;2023-02-01T15:07:30;12.40;51.40
11239;DHT22;5677;48.488;13.436;2023-02-01T15:09:57;12.40;51.60
11239;DHT22;5677;48.488;13.436;2023-02-01T15:12:26;12.40;51.60
11239;DHT22;5677;48.488;13.436;2023-02-01T15:15:13;12.40;51.50
11239;DHT22;5677;48.488;13.436;2023-02-01T15:17:42;12.40;51.30
11239;DHT22;5677;48.488;13.436;2023-02-01T15:20:17;12.40;51.30
11239;DHT22;5677;48.488;13.436;2023-02-01T15:22:54;12.40;51.30
11239;DHT22;5677;48.488;13.436;2023-02-01T15:25:23;12.40;51.30
11239;DHT22;5677;48.488;13.436;2023-02-01T15:27:51;12.40;51.30
11239;DHT22;5677;48.488;13.436;2023-02-01T15:30:20;12.40;51.20
11239;DHT22;5677;48.488;13.436;2023-02-01T15:32:48;12.40;51.10
11239;DHT22;5677;48.488;13.436;2023-02-01T15:35:38;12.40;51.30
11239;DHT22;5677;48.488;13.436;2023-02-01T15:38:34;12.40;51.50
11239;DHT22;5677;48.488;13.436;2023-02-01T15:41:05;12.50;54.50
11239;DHT22;5677;48.488;13.436;2023-02-01T15:43:35;12.50;54.80
11239;DHT22;5677;48.488;13.436;2023-02-01T15:46:08;12.60;53.90
11239;DHT22;5677;48.488;13.436;2023-02-01T15:48:39;12.60;53.50
11239;DHT22;5677;48.488;13.436;2023-02-01T15:51:12;12.60;53.10
11239;DHT22;5677;48.488;13.436;2023-02-01T15:53:44;12.60;52.90
11239;DHT22;5677;48.488;13.436;2023-02-01T15:56:12;12.60;52.80
11239;DHT22;5677;48.488;13.436;2023-02-01T15:58:42;12.60;52.70
11239;DHT22;5677;48.488;13.436;2023-02-01T16:01:11;12.60;52.60
11239;DHT22;5677;48.488;13.436;2023-02-01T16:03:41;12.60;52.50
11239;DHT22;5677;48.488;13.436;2023-02-01T16:06:11;12.60;52.40
11239;DHT22;5677;48.488;13.436;2023-02-01T16:08:51;12.60;52.40
11239;DHT22;5677;48.488;13.436;2023-02-01T16:11:25;12.60;52.30
11239;DHT22;5677;48.488;13.436;2023-02-01T16:13:53;12.50;52.20